createdAt,value
2023-11-29T00:01:51.581Z,97.36
2023-11-29T00:04:19.975Z,97.41
2023-11-29T00:06:47.985Z,98.84
2023-11-29T00:09:15.966Z,97.48
2023-11-29T00:11:44.305Z,97.05
2023-11-29T00:14:12.410Z,97.18
2023-11-29T00:16:43.299Z,97.09
2023-11-29T00:19:14.476Z,97.42
2023-11-29T00:21:43.147Z,96.67
2023-11-29T00:24:11.600Z,96.91
2023-11-29T00:26:39.582Z,99.08
2023-11-29T00:29:07.595Z,96.58
2023-11-29T00:31:36.061Z,96.59
2023-11-29T00:34:05.501Z,97.96
2023-11-29T00:36:34.076Z,98.73
2023-11-29T00:39:02.718Z,98.14
2023-11-29T00:41:33.324Z,98.67
2023-11-29T00:44:01.246Z,96.89
2023-11-29T00:46:29.890Z,97.42
2023-11-29T00:48:57.865Z,96.80
2023-11-29T00:51:25.818Z,96.25
2023-11-29T00:53:54.870Z,96.58
2023-11-29T00:56:22.719Z,96.79
2023-11-29T00:58:53.921Z,95.36
2023-11-29T01:01:22.361Z,95.41
2023-11-29T01:03:53.494Z,95.69
2023-11-29T01:06:22.435Z,95.67
2023-11-29T01:08:50.604Z,96.45
2023-11-29T01:11:19.771Z,96.06
2023-11-29T01:13:47.834Z,96.41
2023-11-29T01:16:16.132Z,96.70
2023-11-29T01:18:45.061Z,96.76
2023-11-29T01:21:17.204Z,96.92
2023-11-29T01:23:53.929Z,97.00
2023-11-29T01:26:21.711Z,96.92
2023-11-29T01:28:49.554Z,96.93
2023-11-29T01:31:20.438Z,96.81
2023-11-29T01:33:48.289Z,97.53
2023-11-29T01:36:16.370Z,97.44
2023-11-29T01:38:44.605Z,96.99
2023-11-29T01:41:15.610Z,98.16
2023-11-29T01:43:43.573Z,96.95
2023-11-29T01:46:12.240Z,97.14
2023-11-29T01:48:41.129Z,97.71
2023-11-29T01:51:12.349Z,97.66
2023-11-29T01:53:42.073Z,97.95
2023-11-29T01:56:10.533Z,97.67
2023-11-29T01:58:38.473Z,98.60
2023-11-29T02:01:06.958Z,97.72
2023-11-29T02:03:35.270Z,98.29
2023-11-29T02:06:03.324Z,98.32
2023-11-29T02:08:32.645Z,97.78
2023-11-29T02:11:01.126Z,97.39
2023-11-29T02:13:31.015Z,95.62
2023-11-29T02:16:00.654Z,95.50
2023-11-29T02:18:29.260Z,96.41
2023-11-29T02:20:57.375Z,95.45
2023-11-29T02:24:07.471Z,94.67
2023-11-29T02:26:35.929Z,94.16
2023-11-29T02:29:04.524Z,93.79
2023-11-29T02:31:32.470Z,96.08
2023-11-29T02:34:02.870Z,93.13
2023-11-29T02:36:33.942Z,94.92
2023-11-29T02:39:02.199Z,95.92
2023-11-29T02:41:30.281Z,95.87
2023-11-29T02:43:58.556Z,93.01
2023-11-29T02:46:26.942Z,94.52
2023-11-29T02:48:55.483Z,92.45
2023-11-29T02:51:24.570Z,95.00
2023-11-29T02:53:52.981Z,94.75
2023-11-29T02:56:21.380Z,92.88
2023-11-29T02:58:49.439Z,93.49
2023-11-29T03:01:17.877Z,93.25
2023-11-29T03:03:45.756Z,94.52
2023-11-29T03:06:16.893Z,91.69
2023-11-29T03:08:45.341Z,93.96
2023-11-29T03:11:16.307Z,93.37
2023-11-29T03:13:44.300Z,94.73
2023-11-29T03:16:12.675Z,96.28
2023-11-29T03:18:40.844Z,93.67
2023-11-29T03:21:08.890Z,92.85
2023-11-29T03:23:37.168Z,93.84
2023-11-29T03:26:06.398Z,93.60
2023-11-29T03:28:34.344Z,90.73
2023-11-29T03:31:02.728Z,93.15
2023-11-29T03:33:31.001Z,93.46
2023-11-29T03:35:59.066Z,92.49
2023-11-29T03:38:27.503Z,93.06
2023-11-29T03:40:58.352Z,90.68
2023-11-29T03:43:26.328Z,92.82
2023-11-29T03:45:55.310Z,92.51
2023-11-29T03:48:23.404Z,93.18
2023-11-29T03:50:51.438Z,92.48
2023-11-29T03:53:19.923Z,93.05
2023-11-29T03:55:47.980Z,93.35
2023-11-29T03:58:15.932Z,93.78
2023-11-29T04:00:44.591Z,93.44
2023-11-29T04:03:13.103Z,93.97
2023-11-29T04:05:41.350Z,93.43
2023-11-29T04:08:13.921Z,93.95
2023-11-29T04:10:42.271Z,93.94
2023-11-29T04:13:10.350Z,93.67
2023-11-29T04:15:38.733Z,91.22
2023-11-29T04:18:10.635Z,91.80
2023-11-29T04:20:39.121Z,93.58
2023-11-29T04:23:07.610Z,93.88
2023-11-29T04:25:35.636Z,94.25
2023-11-29T04:28:04.887Z,93.97
2023-11-29T04:30:33.883Z,93.51
2023-11-29T04:33:05.414Z,96.37
2023-11-29T04:35:34.315Z,95.94
2023-11-29T04:38:02.604Z,95.72
2023-11-29T04:40:31.513Z,94.96
2023-11-29T04:43:01.605Z,94.41
2023-11-29T04:45:33.485Z,94.21
2023-11-29T04:48:07.779Z,93.99
2023-11-29T04:50:36.133Z,94.19
2023-11-29T04:53:04.802Z,94.07
2023-11-29T04:55:33.240Z,94.16
2023-11-29T04:58:01.690Z,93.99
2023-11-29T05:00:31.961Z,94.01
2023-11-29T05:03:03.571Z,93.67
2023-11-29T05:05:38.278Z,93.52
2023-11-29T05:08:08.846Z,93.52
2023-11-29T05:10:40.724Z,93.72
2023-11-29T05:13:10.883Z,93.33
2023-11-29T05:15:43.010Z,93.16
2023-11-29T05:18:17.077Z,93.46
2023-11-29T05:20:48.763Z,93.32
2023-11-29T05:23:22.054Z,93.33
2023-11-29T05:25:52.928Z,93.18
2023-11-29T05:28:26.706Z,92.35
2023-11-29T05:30:58.093Z,93.11
2023-11-29T05:33:27.995Z,92.94
2023-11-29T05:35:58.633Z,92.77
2023-11-29T05:38:30.759Z,92.24
2023-11-29T05:41:03.961Z,92.79
2023-11-29T05:43:32.739Z,92.67
2023-11-29T05:46:04.651Z,92.48
2023-11-29T05:48:35.817Z,92.65
2023-11-29T05:51:10.210Z,92.67
2023-11-29T05:53:48.777Z,92.73
2023-11-29T05:56:23.588Z,92.73
2023-11-29T05:58:56.751Z,92.39
2023-11-29T06:01:31.301Z,92.45
2023-11-29T06:04:09.748Z,91.91
2023-11-29T06:06:42.974Z,91.68
2023-11-29T06:09:16.884Z,92.15
2023-11-29T06:11:48.967Z,92.08
2023-11-29T06:14:20.987Z,91.75
2023-11-29T06:16:55.719Z,91.90
2023-11-29T06:19:29.825Z,91.91
2023-11-29T06:22:02.395Z,91.73
2023-11-29T06:24:35.392Z,91.54
2023-11-29T06:27:11.319Z,91.37
2023-11-29T06:29:44.661Z,90.88
2023-11-29T06:32:17.779Z,91.67
2023-11-29T06:34:56.021Z,91.13
2023-11-29T06:37:27.880Z,91.30
2023-11-29T06:40:05.023Z,91.33
2023-11-29T06:42:38.279Z,91.47
2023-11-29T06:45:14.611Z,91.54
2023-11-29T06:47:53.234Z,91.74
2023-11-29T06:50:30.984Z,91.14
2023-11-29T06:53:05.349Z,90.78
2023-11-29T06:55:42.671Z,91.18
2023-11-29T06:58:21.729Z,91.12
2023-11-29T07:00:59.417Z,90.64
2023-11-29T07:03:32.957Z,91.15
2023-11-29T07:06:11.236Z,90.85
2023-11-29T07:08:55.932Z,90.86
2023-11-29T07:11:30.007Z,91.51
2023-11-29T07:14:04.098Z,92.16
2023-11-29T07:16:39.869Z,93.13
2023-11-29T07:19:14.848Z,93.59
2023-11-29T07:21:49.537Z,94.47
2023-11-29T07:24:27.109Z,94.21
2023-11-29T07:27:03.897Z,94.17
2023-11-29T07:29:40.796Z,94.99
2023-11-29T07:32:15.350Z,94.61
2023-11-29T07:34:49.055Z,95.09
2023-11-29T07:37:29.283Z,94.44
2023-11-29T07:40:06.137Z,94.19
2023-11-29T07:42:39.601Z,93.92
2023-11-29T07:45:12.878Z,95.08
2023-11-29T07:47:49.474Z,95.55
2023-11-29T07:50:33.534Z,93.96
2023-11-29T07:53:07.945Z,92.97
2023-11-29T07:55:38.740Z,92.47
2023-11-29T07:58:24.490Z,94.23
2023-11-29T08:01:04.422Z,93.44
2023-11-29T08:03:41.890Z,92.37
2023-11-29T08:06:26.934Z,93.78
2023-11-29T08:09:02.595Z,91.48
2023-11-29T08:11:43.139Z,93.12
2023-11-29T08:14:25.274Z,91.98
2023-11-29T08:17:05.467Z,91.83
2023-11-29T08:19:46.838Z,92.74
2023-11-29T08:22:23.102Z,93.86
2023-11-29T08:24:57.172Z,93.25
2023-11-29T08:27:39.704Z,94.23
2023-11-29T08:30:24.878Z,94.58
2023-11-29T08:33:06.453Z,92.98
2023-11-29T08:35:50.764Z,93.32
2023-11-29T08:38:32.285Z,92.28
2023-11-29T08:41:14.527Z,92.05
2023-11-29T08:43:49.178Z,89.58
2023-11-29T08:46:28.761Z,89.80
2023-11-29T08:49:08.351Z,90.17
2023-11-29T08:51:47.589Z,93.81
2023-11-29T08:54:30.036Z,94.13
2023-11-29T08:57:09.307Z,90.65
2023-11-29T08:59:49.467Z,92.30
2023-11-29T09:02:36.454Z,91.75
2023-11-29T09:05:18.097Z,93.12
2023-11-29T09:08:00.736Z,89.94
2023-11-29T09:10:43.718Z,89.68
2023-11-29T09:13:25.994Z,91.44
2023-11-29T09:16:00.913Z,92.15
2023-11-29T09:18:39.384Z,92.25
2023-11-29T09:21:19.223Z,91.57
2023-11-29T09:24:04.314Z,89.51
2023-11-29T09:26:42.263Z,88.89
2023-11-29T09:29:19.162Z,89.72
2023-11-29T09:31:55.539Z,90.93
2023-11-29T09:34:28.395Z,92.17
2023-11-29T09:37:05.621Z,91.09
2023-11-29T09:39:47.429Z,90.50
2023-11-29T09:42:33.557Z,91.02
2023-11-29T09:45:24.666Z,91.93
2023-11-29T09:48:04.955Z,91.28
2023-11-29T09:50:50.856Z,94.63
2023-11-29T09:53:32.169Z,93.81
2023-11-29T09:56:09.755Z,91.06
2023-11-29T09:58:59.964Z,91.26
2023-11-29T10:02:13.316Z,89.63
2023-11-29T10:05:00.153Z,92.19
2023-11-29T10:07:34.741Z,91.23
2023-11-29T10:10:14.287Z,92.35
2023-11-29T10:12:51.077Z,93.37
2023-11-29T10:15:33.543Z,93.77
2023-11-29T10:18:10.344Z,92.68
2023-11-29T10:23:40.582Z,91.74
2023-11-29T10:26:17.265Z,90.57
2023-11-29T10:28:52.800Z,91.17
2023-11-29T10:31:35.472Z,91.05
2023-11-29T10:34:12.747Z,91.66
2023-11-29T10:36:49.934Z,90.69
2023-11-29T10:39:36.685Z,90.05
2023-11-29T10:42:18.109Z,89.22
2023-11-29T10:44:58.644Z,89.39
2023-11-29T10:47:42.687Z,93.41
2023-11-29T10:50:24.987Z,90.11
2023-11-29T10:53:05.569Z,88.77
2023-11-29T10:55:44.389Z,87.82
2023-11-29T10:58:27.019Z,89.39
2023-11-29T11:01:07.111Z,88.77
2023-11-29T11:03:54.593Z,87.83
2023-11-29T11:06:38.572Z,89.53
2023-11-29T11:09:31.726Z,93.92
2023-11-29T11:12:15.455Z,90.35
2023-11-29T11:14:56.885Z,90.34
2023-11-29T11:17:29.532Z,87.95
2023-11-29T11:20:15.832Z,88.87
2023-11-29T11:22:57.020Z,88.21
2023-11-29T11:25:40.963Z,88.34
2023-11-29T11:28:33.279Z,88.30
2023-11-29T11:31:22.872Z,88.30
2023-11-29T11:33:55.374Z,89.34
2023-11-29T11:36:33.255Z,89.86
2023-11-29T11:39:14.529Z,89.55
2023-11-29T11:41:54.968Z,88.87
2023-11-29T11:44:33.092Z,87.50
2023-11-29T11:47:14.097Z,88.14
2023-11-29T11:49:48.979Z,87.25
2023-11-29T11:52:23.092Z,89.63
2023-11-29T11:55:01.802Z,88.87
2023-11-29T11:57:44.856Z,87.59
2023-11-29T12:00:26.156Z,87.71
2023-11-29T12:03:12.076Z,87.28
2023-11-29T12:05:46.409Z,86.94
2023-11-29T12:08:29.528Z,88.38
2023-11-29T12:11:06.239Z,87.16
2023-11-29T12:13:46.929Z,87.05
2023-11-29T12:16:32.068Z,87.90
2023-11-29T12:19:04.309Z,86.78
2023-11-29T12:21:52.877Z,87.26
2023-11-29T12:24:45.688Z,86.43
2023-11-29T12:27:33.032Z,86.63
2023-11-29T12:30:18.843Z,86.85
2023-11-29T12:32:57.400Z,87.03
2023-11-29T12:35:33.439Z,86.00
2023-11-29T12:38:09.104Z,86.89
2023-11-29T12:40:45.869Z,87.59
2023-11-29T12:43:24.990Z,87.48
2023-11-29T12:46:05.425Z,86.46
2023-11-29T12:48:49.997Z,86.78
2023-11-29T12:51:29.557Z,87.36
2023-11-29T12:54:17.173Z,86.92
2023-11-29T12:57:06.290Z,86.35
2023-11-29T12:59:40.028Z,86.27
2023-11-29T13:02:21.595Z,86.34
2023-11-29T13:04:59.233Z,86.56
2023-11-29T13:07:44.049Z,87.30
2023-11-29T13:10:19.803Z,86.77
2023-11-29T13:13:05.663Z,87.30
2023-11-29T13:15:45.076Z,86.59
2023-11-29T13:18:24.569Z,86.98
2023-11-29T13:21:04.030Z,87.28
2023-11-29T13:23:46.319Z,86.94
2023-11-29T13:26:24.152Z,85.62
2023-11-29T13:29:07.353Z,86.67
2023-11-29T13:31:43.229Z,85.61
2023-11-29T13:34:26.053Z,85.90
2023-11-29T13:37:05.124Z,86.34
2023-11-29T13:39:46.913Z,85.34
2023-11-29T13:42:27.639Z,85.45
2023-11-29T13:45:10.665Z,85.25
2023-11-29T13:47:48.734Z,86.41
2023-11-29T13:50:26.473Z,86.68
2023-11-29T13:53:06.411Z,86.34
2023-11-29T13:55:43.576Z,86.11
2023-11-29T13:58:23.673Z,86.50
2023-11-29T14:01:00.635Z,86.69
2023-11-29T14:03:41.909Z,86.39
2023-11-29T14:06:18.991Z,86.46
2023-11-29T14:08:55.108Z,87.10
2023-11-29T14:11:40.070Z,87.08
2023-11-29T14:14:23.113Z,86.53
2023-11-29T14:16:59.846Z,87.64
2023-11-29T14:19:32.035Z,88.37
2023-11-29T14:22:15.724Z,86.33
2023-11-29T14:24:52.606Z,87.75
2023-11-29T14:27:44.444Z,86.97
2023-11-29T14:30:29.746Z,88.41
2023-11-29T14:33:11.192Z,87.23
2023-11-29T14:35:47.972Z,86.33
2023-11-29T14:38:23.241Z,85.99
2023-11-29T14:41:05.792Z,86.25
2023-11-29T14:43:45.244Z,87.25
2023-11-29T14:46:23.480Z,86.64
2023-11-29T14:48:56.728Z,86.48
2023-11-29T14:51:41.017Z,86.01
2023-11-29T14:54:24.798Z,86.20
2023-11-29T14:57:02.192Z,85.74
2023-11-29T14:59:44.111Z,86.34
2023-11-29T15:02:27.423Z,86.83
2023-11-29T15:05:07.288Z,86.83
2023-11-29T15:07:44.495Z,86.08
2023-11-29T15:10:19.511Z,86.08
2023-11-29T15:13:04.043Z,86.26
2023-11-29T15:15:42.651Z,86.26
2023-11-29T15:18:22.201Z,86.45
2023-11-29T15:20:59.381Z,87.62
2023-11-29T15:23:39.948Z,87.35
2023-11-29T15:26:20.366Z,87.21
2023-11-29T15:29:02.295Z,87.36
2023-11-29T15:31:44.759Z,87.65
2023-11-29T15:34:34.596Z,87.92
2023-11-29T15:37:15.204Z,88.21
2023-11-29T15:39:55.425Z,88.41
2023-11-29T15:42:32.259Z,88.15
2023-11-29T15:45:10.651Z,87.91
2023-11-29T15:47:47.897Z,88.40
2023-11-29T15:50:25.238Z,87.97
2023-11-29T15:53:02.288Z,88.23
2023-11-29T15:55:43.620Z,88.08
2023-11-29T15:58:22.333Z,88.35
2023-11-29T16:01:03.290Z,88.63
2023-11-29T16:03:53.277Z,89.01
2023-11-29T16:06:31.117Z,88.62
2023-11-29T16:09:08.864Z,89.23
2023-11-29T16:11:46.852Z,89.16
2023-11-29T16:14:27.564Z,89.19
2023-11-29T16:17:04.362Z,89.21
2023-11-29T16:19:51.311Z,88.91
2023-11-29T16:22:30.721Z,89.05
2023-11-29T16:25:25.052Z,88.89
2023-11-29T16:28:05.700Z,88.70
2023-11-29T16:30:44.115Z,88.48
2023-11-29T16:33:22.108Z,88.76
2023-11-29T16:35:58.349Z,88.41
2023-11-29T16:38:37.238Z,88.78
2023-11-29T16:41:19.315Z,89.11
2023-11-29T16:43:59.230Z,88.37
2023-11-29T16:46:40.219Z,88.04
2023-11-29T16:49:17.322Z,88.28
2023-11-29T16:51:57.961Z,88.06
2023-11-29T16:54:42.192Z,87.95
2023-11-29T16:57:21.658Z,88.09
2023-11-29T17:00:02.655Z,88.11
2023-11-29T17:02:52.333Z,87.63
2023-11-29T17:05:40.427Z,87.65
2023-11-29T17:08:19.589Z,87.61
2023-11-29T17:11:01.270Z,87.34
2023-11-29T17:13:50.226Z,87.48
2023-11-29T17:16:32.849Z,87.49
2023-11-29T17:19:21.092Z,87.85
2023-11-29T17:21:58.292Z,87.79
2023-11-29T17:24:38.335Z,87.71
2023-11-29T17:27:14.603Z,87.58
2023-11-29T17:29:50.311Z,87.76
2023-11-29T17:32:29.853Z,87.73
2023-11-29T17:35:19.178Z,88.11
2023-11-29T17:37:56.334Z,87.97
2023-11-29T17:40:35.098Z,87.90
2023-11-29T17:43:18.323Z,88.03
2023-11-29T17:46:03.431Z,88.02
2023-11-29T17:48:41.571Z,88.40
2023-11-29T17:51:20.256Z,88.52
2023-11-29T17:53:54.278Z,88.59
2023-11-29T17:56:36.606Z,89.38
2023-11-29T17:59:17.785Z,89.13
2023-11-29T18:02:04.000Z,89.03
2023-11-29T18:04:46.330Z,88.99
2023-11-29T18:07:23.146Z,89.29
2023-11-29T18:09:57.017Z,89.50
2023-11-29T18:12:33.460Z,89.73
2023-11-29T18:15:09.670Z,89.89
2023-11-29T18:17:42.602Z,89.94
2023-11-29T18:20:21.119Z,89.91
2023-11-29T18:22:50.997Z,90.74
2023-11-29T18:25:29.901Z,89.93
2023-11-29T18:28:04.216Z,89.78
2023-11-29T18:30:46.022Z,89.88
2023-11-29T18:33:28.935Z,89.79
2023-11-29T18:36:04.103Z,90.01
2023-11-29T18:38:40.632Z,90.63
2023-11-29T18:41:22.926Z,90.41
2023-11-29T18:43:57.073Z,90.81
2023-11-29T18:46:32.256Z,90.68
2023-11-29T18:49:09.284Z,90.87
2023-11-29T18:51:44.533Z,91.21
2023-11-29T18:54:22.359Z,91.05
2023-11-29T18:57:01.501Z,91.57
2023-11-29T19:03:07.623Z,91.09
2023-11-29T19:05:42.597Z,91.13
2023-11-29T19:08:20.302Z,91.50
2023-11-29T19:10:59.218Z,91.69
2023-11-29T19:13:36.010Z,91.80
2023-11-29T19:16:16.910Z,91.33
2023-11-29T19:18:52.054Z,91.35
2023-11-29T19:21:33.494Z,91.63
2023-11-29T19:24:08.107Z,91.77
2023-11-29T19:26:42.914Z,91.53
2023-11-29T19:29:16.042Z,91.79
2023-11-29T19:31:48.480Z,91.50
2023-11-29T19:34:21.375Z,91.46
2023-11-29T19:36:57.475Z,91.97
2023-11-29T19:39:38.034Z,91.64
2023-11-29T19:42:16.526Z,91.48
2023-11-29T19:44:49.439Z,91.91
2023-11-29T19:47:30.649Z,92.09
2023-11-29T19:50:02.989Z,91.88
2023-11-29T19:52:43.726Z,92.15
2023-11-29T19:55:19.664Z,91.86
2023-11-29T19:57:53.920Z,91.81
2023-11-29T20:00:25.027Z,92.32
2023-11-29T20:02:59.858Z,92.08
2023-11-29T20:05:34.720Z,92.19
2023-11-29T20:08:10.674Z,92.32
2023-11-29T20:10:41.635Z,92.42
2023-11-29T20:13:18.349Z,92.60
2023-11-29T20:15:56.486Z,92.57
2023-11-29T20:18:36.544Z,92.50
2023-11-29T20:21:09.759Z,92.20
2023-11-29T20:23:40.497Z,92.29
2023-11-29T20:26:11.171Z,92.30
2023-11-29T20:28:43.631Z,92.41
2023-11-29T20:31:16.272Z,92.55
2023-11-29T20:33:50.872Z,92.32
2023-11-29T20:36:24.980Z,92.68
2023-11-29T20:39:05.601Z,92.78
2023-11-29T20:41:39.330Z,93.14
2023-11-29T20:44:11.266Z,92.76
2023-11-29T20:46:43.986Z,92.94
2023-11-29T20:49:17.578Z,93.05
2023-11-29T20:51:46.750Z,93.26
2023-11-29T20:54:18.127Z,93.25
2023-11-29T20:56:47.946Z,93.73
2023-11-29T20:59:19.343Z,93.44
2023-11-29T21:01:50.928Z,94.21
2023-11-29T21:04:21.143Z,93.89
2023-11-29T21:06:50.363Z,93.86
2023-11-29T21:09:19.660Z,93.85
2023-11-29T21:11:49.563Z,94.18
2023-11-29T21:14:18.011Z,94.25
2023-11-29T21:16:47.016Z,94.26
2023-11-29T21:19:15.975Z,93.90
2023-11-29T21:21:45.601Z,94.32
2023-11-29T21:24:13.872Z,94.20
2023-11-29T21:26:42.585Z,94.22
2023-11-29T21:29:11.940Z,94.19
2023-11-29T21:31:39.924Z,94.29
2023-11-29T21:34:08.541Z,94.80
2023-11-29T21:36:38.053Z,94.66
2023-11-29T21:39:07.350Z,95.26
2023-11-29T21:41:35.623Z,94.72
2023-11-29T21:44:04.126Z,94.74
2023-11-29T21:46:35.078Z,95.20
2023-11-29T21:49:03.508Z,94.95
2023-11-29T21:51:34.260Z,96.08
2023-11-29T21:54:02.267Z,95.53
2023-11-29T21:56:30.803Z,95.53
2023-11-29T21:58:58.695Z,95.30
2023-11-29T22:01:26.700Z,95.27
2023-11-29T22:03:55.104Z,95.24
2023-11-29T22:06:27.565Z,95.27
2023-11-29T22:08:55.841Z,95.45
2023-11-29T22:11:26.631Z,95.53
2023-11-29T22:13:54.508Z,95.45
2023-11-29T22:16:23.665Z,95.57
2023-11-29T22:18:53.031Z,95.39
2023-11-29T22:21:25.507Z,94.84
2023-11-29T22:23:57.349Z,95.08
2023-11-29T22:26:25.437Z,95.06
2023-11-29T22:28:57.115Z,95.52
2023-11-29T22:31:24.902Z,95.31
2023-11-29T22:33:53.214Z,95.23
2023-11-29T22:36:21.431Z,95.12
2023-11-29T22:38:49.751Z,95.30
2023-11-29T22:41:29.835Z,95.05
2023-11-29T22:43:58.595Z,94.77
2023-11-29T22:46:30.714Z,94.93
2023-11-29T22:48:58.777Z,94.90
2023-11-29T22:51:28.883Z,94.71
2023-11-29T22:53:58.225Z,94.46
2023-11-29T22:56:26.319Z,94.75
2023-11-29T22:58:54.147Z,94.71
2023-11-29T23:01:29.278Z,94.60
2023-11-29T23:03:57.849Z,94.69
2023-11-29T23:06:26.385Z,94.39
2023-11-29T23:08:55.542Z,94.30
2023-11-29T23:11:24.205Z,94.25
2023-11-29T23:13:53.219Z,94.12
2023-11-29T23:16:21.439Z,93.86
2023-11-29T23:18:53.007Z,93.88
2023-11-29T23:21:21.056Z,93.89
2023-11-29T23:23:49.637Z,94.28
2023-11-29T23:26:17.708Z,94.25
2023-11-29T23:28:45.537Z,94.78
2023-11-29T23:31:16.776Z,94.52
2023-11-29T23:33:44.682Z,94.53
2023-11-29T23:36:12.723Z,94.69
2023-11-29T23:38:41.004Z,94.55
2023-11-29T23:41:09.000Z,94.57
2023-11-29T23:43:36.804Z,94.91
2023-11-29T23:46:05.036Z,94.55
2023-11-29T23:48:32.879Z,95.00
2023-11-29T23:51:00.907Z,95.06
2023-11-29T23:53:29.225Z,95.11
2023-11-29T23:55:57.007Z,95.09
2023-11-29T23:58:24.859Z,94.93
